Decoded Metar for KSPA (SPARTANBURG VOR in SC, USA) (IATA:SPA) | Meteo·Mobile Aviation Weather
aviador You're here:

KSPA Decoded Metar

SPARTANBURG VOR in SC, USA
Report Time2018-12-16 10:55:00
UTC Time2018-12-16 10:56:29
Flight Rules vfr VFR
WindCalm
Visibility9999 m
Phenomena:N/A
Clouds:N/A
CeilingNone
Temp03°C (ISA -10)
Dew Point03°C (100% RH)
AAT1.5°C
QNH1015 hPa
Density Alt-180 ft
Elevation994 ft
Report Wrong Elevation
Raw Report
KSPA 161055Z AUTO 00000KT 7SM CLR 03/03 A2997 RMK AO2=

Extra information for KSPA:More info

Metar Taf Metar & Taf Last 4 Metars F.Rules Stats Wind Profile Meteogram Temp Stats Airport Information Weather charts Add Link Nearby VenuesMetar ALERT Operation Metar Decoded Social comments

AIRNAV info for KSPA